Time;durP1;ratioP1;P1;durP2;ratioP2;P2;SDS_P1;SDS_P2;PMS_P1;PMS_P2;Temp;Humidity;BMP_temperature;BMP_pressure;BME280_temperature;BME280_humidity;BME280_pressure;Samples;Min_cycle;Max_cycle;Signal;HPM_P1;HPM_P2
2021/08/20 00:02:06;;;;;;;2.77;2.47;;;21.00;99.90;;;;;;5004682;28;20208;-63
2021/08/20 00:04:33;;;;;;;3.10;2.37;;;20.90;99.90;;;;;;4988730;28;20568;-63
2021/08/20 00:07:00;;;;;;;3.27;2.97;;;20.80;99.90;;;;;;4971452;28;20444;-64
2021/08/20 00:09:26;;;;;;;2.73;2.53;;;20.90;99.90;;;;;;5004474;28;20495;-65
2021/08/20 00:11:52;;;;;;;2.87;2.63;;;20.80;99.90;;;;;;5006244;28;20436;-63
2021/08/20 00:14:24;;;;;;;3.40;2.50;;;20.70;99.90;;;;;;4999419;28;20448;-63
2021/08/20 00:16:49;;;;;;;3.37;2.60;;;20.80;99.90;;;;;;5002349;28;20193;-62
2021/08/20 00:19:15;;;;;;;3.10;2.80;;;20.80;99.90;;;;;;5001981;28;20509;-63
2021/08/20 00:21:41;;;;;;;2.80;2.30;;;20.80;99.90;;;;;;5000916;28;20196;-65
2021/08/20 00:24:07;;;;;;;11.00;5.30;;;20.80;99.90;;;;;;4999936;28;20768;-66
2021/08/20 00:26:33;;;;;;;3.67;2.50;;;20.80;99.90;;;;;;5002903;28;20219;-65
2021/08/20 00:29:05;;;;;;;3.67;2.80;;;20.70;99.90;;;;;;5005608;28;20857;-65
2021/08/20 00:31:33;;;;;;;3.00;2.10;;;20.70;99.90;;;;;;5003949;28;20452;-64
2021/08/20 00:34:05;;;;;;;6.10;2.40;;;20.60;99.90;;;;;;5002211;28;20505;-65
2021/08/20 00:36:33;;;;;;;3.47;3.00;;;20.50;99.90;;;;;;5004617;28;20550;-62
2021/08/20 00:39:00;;;;;;;3.33;2.40;;;20.50;99.90;;;;;;4997649;28;20566;-65
2021/08/20 00:41:26;;;;;;;2.80;2.37;;;20.50;99.90;;;;;;5002135;28;20447;-63
2021/08/20 00:43:52;;;;;;;3.10;2.80;;;20.40;99.90;;;;;;4986985;28;20447;-64
2021/08/20 00:46:20;;;;;;;3.20;2.90;;;20.30;99.90;;;;;;5002295;28;20444;-63
2021/08/20 00:48:55;;;;;;;2.60;2.40;;;20.30;99.90;;;;;;5002502;28;20896;-63
2021/08/20 00:51:24;;;;;;;2.50;2.30;;;20.20;99.90;;;;;;5003850;28;20938;-66
2021/08/20 00:53:59;;;;;;;3.00;2.60;;;20.20;99.90;;;;;;4999094;28;20449;-66
2021/08/20 00:56:26;;;;;;;4.47;2.73;;;20.10;99.90;;;;;;4999982;28;20854;-62
2021/08/20 00:59:01;;;;;;;7.73;2.70;;;20.20;99.90;;;;;;5002427;28;20470;-65
2021/08/20 01:01:26;;;;;;;3.70;2.63;;;20.20;99.90;;;;;;5001142;28;20442;-65
2021/08/20 01:03:52;;;;;;;7.33;2.50;;;20.30;99.90;;;;;;5002079;28;20456;-64
2021/08/20 01:06:18;;;;;;;3.30;2.77;;;20.40;99.90;;;;;;5001954;28;20190;-63
2021/08/20 01:08:53;;;;;;;2.93;2.30;;;20.40;99.90;;;;;;5000371;28;20219;-63
2021/08/20 01:11:24;;;;;;;3.70;2.77;;;20.40;99.90;;;;;;5003953;28;20215;-65
2021/08/20 01:13:49;;;;;;;3.00;2.60;;;20.50;99.90;;;;;;5004341;28;20444;-63
2021/08/20 01:16:15;;;;;;;6.70;2.80;;;20.40;99.90;;;;;;5006556;28;20950;-65
2021/08/20 01:18:42;;;;;;;4.07;2.40;;;20.50;99.90;;;;;;5004260;28;20270;-63
2021/08/20 01:21:28;;;;;;;2.40;2.13;;;20.50;99.90;;;;;;5002737;28;20204;-65
2021/08/20 01:24:01;;;;;;;3.10;2.60;;;20.40;99.90;;;;;;5005065;28;20459;-63
2021/08/20 01:26:28;;;;;;;2.60;2.40;;;20.20;99.90;;;;;;5007215;28;20447;-63
2021/08/20 01:28:59;;;;;;;4.33;2.87;;;20.20;99.90;;;;;;5002546;28;20475;-63
2021/08/20 01:31:25;;;;;;;3.07;2.30;;;20.20;99.90;;;;;;5007911;28;20455;-63
2021/08/20 01:33:52;;;;;;;3.80;2.60;;;20.30;99.90;;;;;;5005004;28;20443;-63
2021/08/20 01:36:18;;;;;;;3.80;2.77;;;20.30;99.90;;;;;;4987926;28;20451;-62
2021/08/20 01:38:59;;;;;;;8.73;2.83;;;20.30;99.90;;;;;;5007972;28;20468;-65
2021/08/20 01:41:29;;;;;;;2.33;2.13;;;20.30;99.90;;;;;;4990532;28;20197;-64
2021/08/20 01:43:58;;;;;;;2.97;2.47;;;20.20;99.90;;;;;;4985243;28;20476;-63
2021/08/20 01:46:32;;;;;;;2.80;2.50;;;20.10;99.90;;;;;;5007629;28;20444;-62
2021/08/20 01:49:03;;;;;;;3.83;2.67;;;20.10;99.90;;;;;;4987459;28;20463;-64
2021/08/20 01:51:35;;;;;;;4.63;2.30;;;20.10;99.90;;;;;;5004146;28;20977;-66
2021/08/20 01:54:04;;;;;;;3.43;2.90;;;20.10;99.90;;;;;;5008118;28;20433;-65
2021/08/20 01:56:37;;;;;;;4.13;3.73;;;20.20;99.90;;;;;;5002734;28;20884;-64
2021/08/20 01:59:03;;;;;;;6.37;4.50;;;20.10;99.90;;;;;;5001956;28;20464;-64
2021/08/20 02:01:34;;;;;;;7.10;5.53;;;19.90;99.90;;;;;;5005173;28;20506;-64
2021/08/20 02:04:00;;;;;;;14.47;5.77;;;19.80;99.90;;;;;;4985993;28;21520;-64
2021/08/20 02:06:26;;;;;;;9.10;5.40;;;20.00;99.90;;;;;;5004649;28;20984;-64
2021/08/20 02:08:54;;;;;;;7.57;5.37;;;19.90;99.90;;;;;;5006037;28;21150;-64
2021/08/20 02:11:23;;;;;;;8.67;5.10;;;19.90;99.90;;;;;;5004347;28;20196;-65
2021/08/20 02:13:49;;;;;;;6.90;3.90;;;19.90;99.90;;;;;;4986707;28;20437;-66
2021/08/20 02:16:19;;;;;;;7.87;5.13;;;20.10;99.90;;;;;;5004803;28;20439;-66
2021/08/20 02:18:45;;;;;;;6.17;3.93;;;20.10;99.90;;;;;;4985428;28;20205;-64
2021/08/20 02:21:14;;;;;;;5.60;3.90;;;20.00;99.90;;;;;;5004029;28;20436;-64
2021/08/20 02:23:43;;;;;;;6.73;3.33;;;20.00;99.90;;;;;;5005390;28;20276;-66
2021/08/20 02:26:15;;;;;;;4.53;3.63;;;20.10;99.90;;;;;;4988276;28;20486;-66
2021/08/20 02:28:41;;;;;;;9.03;3.40;;;20.00;99.90;;;;;;4987997;28;20471;-66
2021/08/20 02:31:09;;;;;;;3.60;3.00;;;20.00;99.90;;;;;;5004617;28;20444;-64
2021/08/20 02:33:40;;;;;;;3.07;2.70;;;20.10;99.90;;;;;;5002072;28;20178;-64
2021/08/20 02:36:07;;;;;;;6.40;3.37;;;20.10;99.90;;;;;;5001162;28;20516;-63
2021/08/20 02:38:33;;;;;;;3.47;2.63;;;20.00;99.90;;;;;;5004764;28;20573;-63
2021/08/20 02:40:58;;;;;;;3.60;3.03;;;20.00;99.90;;;;;;5004284;28;20470;-63
2021/08/20 02:43:24;;;;;;;2.87;2.47;;;20.00;99.90;;;;;;5004276;28;20444;-63
2021/08/20 02:45:53;;;;;;;2.97;2.67;;;20.00;99.90;;;;;;5006475;28;20189;-63
2021/08/20 02:48:20;;;;;;;3.67;2.40;;;20.00;99.90;;;;;;4983814;28;20248;-64
2021/08/20 02:50:46;;;;;;;3.53;2.70;;;20.00;99.90;;;;;;4984988;28;20436;-65
2021/08/20 02:53:17;;;;;;;4.07;2.67;;;20.00;99.90;;;;;;5006025;28;20794;-65
2021/08/20 02:55:43;;;;;;;4.97;2.80;;;20.00;99.90;;;;;;5003852;28;20190;-63
2021/08/20 02:58:09;;;;;;;4.53;2.90;;;20.00;99.90;;;;;;5004522;28;20447;-65
2021/08/20 03:00:34;;;;;;;3.50;2.80;;;20.00;99.90;;;;;;5003821;28;20710;-63
2021/08/20 03:03:04;;;;;;;2.90;2.60;;;19.90;99.90;;;;;;5005487;28;20198;-63
2021/08/20 03:05:30;;;;;;;4.20;2.37;;;19.90;99.90;;;;;;5001828;28;20229;-63
2021/08/20 03:07:55;;;;;;;3.23;2.63;;;20.00;99.90;;;;;;5002853;28;20541;-63
2021/08/20 03:10:22;;;;;;;2.90;2.60;;;19.90;99.90;;;;;;5005378;28;20950;-64
2021/08/20 03:12:50;;;;;;;3.00;2.70;;;19.80;99.90;;;;;;5002961;28;20718;-62
2021/08/20 03:15:19;;;;;;;3.23;2.57;;;19.90;99.90;;;;;;4997038;28;20432;-62
2021/08/20 03:17:44;;;;;;;4.07;2.70;;;19.80;99.90;;;;;;5004565;28;20502;-63
2021/08/20 03:20:11;;;;;;;2.60;2.40;;;19.90;99.90;;;;;;5000642;28;20459;-63
2021/08/20 03:22:36;;;;;;;3.37;3.00;;;20.00;99.90;;;;;;5002979;28;20190;-63
2021/08/20 03:25:17;;;;;;;3.50;2.60;;;19.90;99.90;;;;;;5002270;28;20505;-63
2021/08/20 03:27:50;;;;;;;2.67;2.47;;;19.90;99.90;;;;;;5001349;28;20584;-63
2021/08/20 03:30:16;;;;;;;3.10;2.80;;;19.90;99.90;;;;;;5004977;28;20476;-63
2021/08/20 03:32:42;;;;;;;8.00;2.63;;;19.80;99.90;;;;;;5001123;28;20576;-65
2021/08/20 03:35:08;;;;;;;5.23;2.87;;;19.90;99.90;;;;;;5002182;28;20973;-65
2021/08/20 03:37:39;;;;;;;3.70;2.50;;;19.80;99.90;;;;;;5005366;28;20185;-63
2021/08/20 03:40:06;;;;;;;2.73;2.20;;;19.80;99.90;;;;;;5004772;28;20467;-62
2021/08/20 03:42:31;;;;;;;3.70;2.80;;;19.80;99.90;;;;;;4987235;28;20875;-63
2021/08/20 03:44:57;;;;;;;4.40;2.57;;;19.70;99.90;;;;;;5003236;28;20447;-62
2021/08/20 03:47:22;;;;;;;3.30;3.00;;;19.80;99.90;;;;;;5002707;28;20253;-64
2021/08/20 03:49:51;;;;;;;3.33;2.73;;;19.70;99.90;;;;;;5002443;28;20212;-65
2021/08/20 03:52:17;;;;;;;4.70;2.83;;;19.70;99.90;;;;;;4986368;28;20327;-63
2021/08/20 03:54:42;;;;;;;2.57;2.17;;;19.80;99.90;;;;;;4987944;28;20436;-65
2021/08/20 03:57:08;;;;;;;2.60;2.40;;;19.80;99.90;;;;;;5001919;28;20943;-65
2021/08/20 03:59:34;;;;;;;4.47;4.07;;;19.90;99.90;;;;;;5001604;28;20220;-65
2021/08/20 04:02:05;;;;;;;3.00;2.70;;;19.90;99.90;;;;;;5003125;28;20189;-65
2021/08/20 04:04:31;;;;;;;3.63;2.70;;;19.90;99.90;;;;;;4971904;28;20192;-63
2021/08/20 04:06:57;;;;;;;5.37;2.70;;;19.80;99.90;;;;;;5003784;28;20538;-62
2021/08/20 04:09:44;;;;;;;2.90;2.40;;;19.70;99.90;;;;;;5005215;28;20554;-65
2021/08/20 04:12:13;;;;;;;2.83;2.53;;;19.70;99.90;;;;;;5000927;28;20209;-65
2021/08/20 04:14:38;;;;;;;2.63;2.43;;;19.70;99.90;;;;;;5001292;28;20530;-65
2021/08/20 04:17:04;;;;;;;4.77;3.03;;;19.60;99.90;;;;;;5004376;28;20934;-63
2021/08/20 04:19:30;;;;;;;3.60;2.87;;;19.40;99.90;;;;;;5003260;28;20244;-63
2021/08/20 04:22:07;;;;;;;3.00;2.50;;;19.40;99.90;;;;;;5001182;28;20220;-62
2021/08/20 04:24:36;;;;;;;3.60;2.70;;;19.50;99.90;;;;;;5004732;28;20551;-65
2021/08/20 04:27:10;;;;;;;4.30;2.50;;;19.50;99.90;;;;;;5003302;28;20440;-63
2021/08/20 04:30:06;;;;;;;3.00;2.70;;;19.50;99.90;;;;;;5005148;28;20463;-65
2021/08/20 04:32:34;;;;;;;3.13;2.77;;;19.40;99.90;;;;;;4985554;28;20826;-65
2021/08/20 04:35:00;;;;;;;5.17;3.40;;;19.30;99.90;;;;;;5007940;28;20502;-63
2021/08/20 04:37:38;;;;;;;3.10;2.60;;;19.30;99.90;;;;;;5003607;28;20468;-64
2021/08/20 04:40:12;;;;;;;3.93;3.27;;;19.20;99.90;;;;;;5000936;28;20706;-63
2021/08/20 04:42:39;;;;;;;4.30;2.80;;;19.10;99.90;;;;;;4984344;28;20448;-62
2021/08/20 04:45:06;;;;;;;7.13;2.83;;;19.20;99.90;;;;;;5004355;28;20443;-63
2021/08/20 04:47:35;;;;;;;2.97;2.67;;;19.30;99.90;;;;;;5003183;28;20470;-65
2021/08/20 04:50:02;;;;;;;6.03;2.40;;;19.30;99.90;;;;;;4996945;28;20996;-65
2021/08/20 04:52:28;;;;;;;3.20;2.90;;;19.40;99.90;;;;;;5001764;28;20448;-63
2021/08/20 04:54:54;;;;;;;2.97;2.70;;;19.50;99.90;;;;;;4986027;28;20437;-63
2021/08/20 04:57:32;;;;;;;4.57;3.10;;;19.50;99.90;;;;;;5001527;28;20443;-64
2021/08/20 05:00:01;;;;;;;3.97;3.30;;;19.50;99.90;;;;;;5004685;28;20279;-66
2021/08/20 05:02:36;;;;;;;3.77;3.37;;;19.40;99.90;;;;;;5004196;28;20853;-65
2021/08/20 05:05:05;;;;;;;5.20;3.07;;;19.40;99.90;;;;;;4955594;28;20578;-63
2021/08/20 05:07:37;;;;;;;3.37;3.07;;;19.40;99.90;;;;;;5007528;28;20590;-64
2021/08/20 05:10:09;;;;;;;2.90;2.60;;;19.40;99.90;;;;;;5002191;28;20456;-63
2021/08/20 05:13:15;;;;;;;4.50;3.13;;;19.40;99.90;;;;;;5007471;28;20578;-65
2021/08/20 05:18:28;;;;;;;3.50;3.10;;;19.50;99.90;;;;;;4991398;28;20473;-64
2021/08/20 05:20:54;;;;;;;4.57;2.80;;;19.40;99.90;;;;;;5007916;28;20452;-64
2021/08/20 05:23:20;;;;;;;6.13;3.13;;;19.50;99.90;;;;;;5008663;28;20251;-64
2021/08/20 05:25:45;;;;;;;4.53;3.00;;;19.60;99.90;;;;;;5006373;28;20189;-65
2021/08/20 05:28:12;;;;;;;3.63;3.20;;;19.60;99.90;;;;;;5002756;28;20599;-65
2021/08/20 05:30:39;;;;;;;5.23;2.87;;;19.60;99.90;;;;;;5005180;28;20189;-65
2021/08/20 05:33:04;;;;;;;4.87;2.97;;;19.40;99.90;;;;;;4992113;28;20455;-64
2021/08/20 05:35:30;;;;;;;4.53;3.30;;;19.50;99.90;;;;;;4989441;28;20482;-65
2021/08/20 05:37:59;;;;;;;12.63;4.10;;;19.50;99.90;;;;;;5003718;28;20392;-66
2021/08/20 05:40:26;;;;;;;6.30;3.10;;;19.40;99.90;;;;;;5006363;28;20213;-64
2021/08/20 05:42:51;;;;;;;3.23;2.93;;;19.40;99.90;;;;;;4992030;28;20443;-64
2021/08/20 05:45:20;;;;;;;6.33;3.30;;;19.40;99.90;;;;;;5005991;28;21265;-63
2021/08/20 05:47:55;;;;;;;4.57;3.00;;;19.70;99.90;;;;;;5000692;28;20205;-64
2021/08/20 05:50:21;;;;;;;4.43;3.00;;;19.60;99.90;;;;;;5003372;28;20494;-63
2021/08/20 05:52:46;;;;;;;3.43;3.13;;;19.50;99.90;;;;;;5004864;28;20945;-63
2021/08/20 05:55:12;;;;;;;4.97;3.53;;;19.70;99.90;;;;;;5004530;28;20236;-64
2021/08/20 05:57:50;;;;;;;4.37;3.20;;;19.70;99.90;;;;;;5005761;28;20189;-64
2021/08/20 06:00:19;;;;;;;4.37;3.70;;;19.60;99.90;;;;;;5001296;28;20882;-64
2021/08/20 06:02:45;;;;;;;6.60;3.63;;;19.60;99.90;;;;;;5005936;28;20455;-62
2021/08/20 06:05:10;;;;;;;4.27;3.20;;;19.70;99.90;;;;;;5008883;28;20429;-62
2021/08/20 06:07:36;;;;;;;5.83;3.77;;;19.80;99.90;;;;;;5003574;28;20598;-62
2021/08/20 06:10:07;;;;;;;5.10;3.63;;;19.80;99.90;;;;;;5004389;28;20726;-63
2021/08/20 06:12:32;;;;;;;5.97;3.50;;;19.90;99.90;;;;;;5003728;28;20264;-64
2021/08/20 06:14:59;;;;;;;4.20;3.80;;;20.00;99.90;;;;;;5005664;28;21008;-63
2021/08/20 06:17:25;;;;;;;5.07;3.80;;;19.90;99.90;;;;;;5007388;28;20271;-64
2021/08/20 06:19:52;;;;;;;4.20;3.80;;;19.90;99.90;;;;;;5006644;28;20590;-63
2021/08/20 06:22:17;;;;;;;7.27;4.60;;;19.80;99.90;;;;;;5008825;28;20204;-64
2021/08/20 06:24:46;;;;;;;7.43;4.10;;;19.80;99.90;;;;;;5005853;28;20839;-63
2021/08/20 06:27:12;;;;;;;4.30;3.53;;;19.90;99.90;;;;;;5007246;28;20259;-63
2021/08/20 06:29:37;;;;;;;5.60;4.50;;;19.90;99.90;;;;;;5002950;28;20464;-65
2021/08/20 06:32:03;;;;;;;5.40;4.30;;;19.90;99.90;;;;;;5004418;28;20189;-63
2021/08/20 06:34:30;;;;;;;6.10;4.50;;;19.90;99.90;;;;;;5004870;28;20913;-63
2021/08/20 06:36:56;;;;;;;5.40;4.40;;;20.00;99.90;;;;;;5007186;28;20460;-64
2021/08/20 06:39:22;;;;;;;7.93;4.60;;;20.00;99.90;;;;;;5008300;28;20892;-65
2021/08/20 06:41:47;;;;;;;4.20;3.80;;;20.00;99.90;;;;;;5003886;28;20189;-63
2021/08/20 06:44:13;;;;;;;5.60;4.40;;;20.10;99.90;;;;;;4984939;28;20587;-63
2021/08/20 06:46:39;;;;;;;8.53;4.57;;;20.10;99.90;;;;;;4999976;28;20215;-63
2021/08/20 06:49:08;;;;;;;4.77;4.20;;;20.00;99.90;;;;;;5001686;28;20287;-65
2021/08/20 06:51:36;;;;;;;9.67;4.33;;;20.00;99.90;;;;;;4988071;28;20189;-65
2021/08/20 06:54:05;;;;;;;8.50;3.90;;;19.90;99.90;;;;;;5001902;28;20975;-66
2021/08/20 06:56:30;;;;;;;6.50;4.43;;;20.00;99.90;;;;;;5001339;28;20436;-64
2021/08/20 06:58:59;;;;;;;5.30;4.53;;;20.10;99.90;;;;;;5006643;28;20571;-67
2021/08/20 07:01:26;;;;;;;8.00;5.40;;;20.20;99.90;;;;;;5010192;28;20221;-64
2021/08/20 07:03:54;;;;;;;5.23;4.63;;;20.30;99.90;;;;;;5004208;28;20459;-65
2021/08/20 07:06:24;;;;;;;5.50;4.90;;;20.40;99.90;;;;;;4983129;28;20814;-65
2021/08/20 07:08:57;;;;;;;11.07;5.50;;;20.40;99.90;;;;;;5001732;28;20476;-63
2021/08/20 07:11:25;;;;;;;8.80;5.03;;;20.40;99.90;;;;;;5000805;28;20478;-64
2021/08/20 07:13:51;;;;;;;4.70;4.10;;;20.50;99.90;;;;;;5004713;28;20451;-64
2021/08/20 07:16:17;;;;;;;6.50;5.00;;;20.60;99.90;;;;;;4984886;28;20436;-65
2021/08/20 07:18:44;;;;;;;5.40;4.90;;;20.60;99.90;;;;;;4983642;28;20468;-65
2021/08/20 07:21:09;;;;;;;6.60;5.53;;;20.80;99.90;;;;;;5001066;28;20490;-66
2021/08/20 07:23:35;;;;;;;6.33;5.30;;;20.90;99.90;;;;;;5003805;28;21663;-65
2021/08/20 07:26:05;;;;;;;5.80;5.30;;;20.80;99.90;;;;;;4998822;28;20193;-65
2021/08/20 07:28:31;;;;;;;8.40;5.10;;;20.90;99.90;;;;;;5005219;28;20291;-66
2021/08/20 07:30:59;;;;;;;7.27;4.67;;;21.00;99.90;;;;;;5009410;28;20439;-64
2021/08/20 07:33:25;;;;;;;9.20;5.20;;;21.00;99.90;;;;;;4981911;28;20444;-63
2021/08/20 07:35:51;;;;;;;7.00;5.20;;;21.00;99.90;;;;;;4984062;28;20471;-62
2021/08/20 07:38:23;;;;;;;5.73;5.13;;;21.00;99.90;;;;;;5000140;28;20443;-62
2021/08/20 07:40:50;;;;;;;8.10;6.00;;;21.00;99.90;;;;;;5003598;28;20850;-64
2021/08/20 07:43:15;;;;;;;6.17;5.57;;;20.90;99.90;;;;;;5002158;28;20455;-66
2021/08/20 07:45:41;;;;;;;10.63;6.07;;;20.90;99.90;;;;;;4982561;28;20448;-63
2021/08/20 07:48:12;;;;;;;5.73;5.13;;;20.80;99.90;;;;;;5006429;28;20221;-65
2021/08/20 07:50:38;;;;;;;7.10;5.20;;;20.90;99.90;;;;;;4969919;28;21025;-62
2021/08/20 07:53:04;;;;;;;5.50;5.00;;;20.80;99.90;;;;;;4983338;28;20803;-66
2021/08/20 07:55:30;;;;;;;8.73;6.30;;;20.90;99.90;;;;;;4984064;28;20443;-66
2021/08/20 07:57:56;;;;;;;9.90;5.40;;;20.90;99.90;;;;;;4998777;28;20199;-67
2021/08/20 08:00:27;;;;;;;8.47;6.37;;;20.90;99.90;;;;;;5006502;28;20213;-63
2021/08/20 08:02:55;;;;;;;5.30;4.80;;;20.90;99.90;;;;;;5002596;28;20468;-63
2021/08/20 08:05:22;;;;;;;7.60;5.53;;;20.90;99.90;;;;;;5001044;28;20530;-64
2021/08/20 08:07:50;;;;;;;8.07;5.97;;;20.80;99.90;;;;;;4986815;28;20538;-65
2021/08/20 08:10:31;;;;;;;6.10;5.43;;;20.70;99.90;;;;;;4987726;28;20460;-64
2021/08/20 08:12:57;;;;;;;8.10;6.43;;;20.80;99.90;;;;;;5001714;28;20756;-65
2021/08/20 08:15:24;;;;;;;7.07;5.70;;;20.90;99.90;;;;;;4986409;28;20211;-63
2021/08/20 08:17:50;;;;;;;7.50;5.60;;;20.90;99.90;;;;;;4984545;28;20455;-63
2021/08/20 08:20:18;;;;;;;8.20;4.87;;;20.90;99.90;;;;;;5001341;28;20841;-63
2021/08/20 08:22:44;;;;;;;5.20;4.70;;;20.90;99.90;;;;;;4999866;28;20458;-64
2021/08/20 08:25:13;;;;;;;6.70;4.90;;;21.00;99.90;;;;;;4996125;28;20812;-64
2021/08/20 08:27:46;;;;;;;6.43;5.40;;;21.10;99.90;;;;;;4985500;28;20515;-64
2021/08/20 08:30:12;;;;;;;6.70;4.37;;;21.10;99.90;;;;;;5003056;28;20501;-64
2021/08/20 08:32:38;;;;;;;5.47;4.97;;;21.10;99.90;;;;;;5000802;28;20501;-66
2021/08/20 08:35:04;;;;;;;6.70;5.33;;;21.10;99.90;;;;;;4996595;28;20185;-65
2021/08/20 08:37:30;;;;;;;5.80;4.70;;;21.20;99.90;;;;;;5004810;28;20277;-66
2021/08/20 08:39:56;;;;;;;6.87;4.57;;;21.30;99.90;;;;;;5002854;28;20483;-63
2021/08/20 08:42:22;;;;;;;5.20;4.67;;;21.40;99.90;;;;;;4997247;28;20448;-66
2021/08/20 08:44:47;;;;;;;5.73;4.37;;;21.40;99.90;;;;;;4983046;28;20201;-66
2021/08/20 08:47:18;;;;;;;5.20;4.70;;;21.50;99.90;;;;;;5004021;28;20444;-63
2021/08/20 08:49:46;;;;;;;5.50;5.00;;;21.30;99.90;;;;;;4979420;28;20463;-63
2021/08/20 08:52:11;;;;;;;6.33;3.67;;;21.40;99.90;;;;;;4991378;28;20451;-63
2021/08/20 08:54:40;;;;;;;4.33;3.93;;;21.50;99.90;;;;;;4992662;28;20440;-64
2021/08/20 08:57:06;;;;;;;6.33;4.50;;;21.50;99.90;;;;;;4996669;28;20489;-63
2021/08/20 08:59:31;;;;;;;5.83;5.23;;;21.60;99.90;;;;;;4997542;28;20460;-63
2021/08/20 09:02:21;;;;;;;6.03;4.50;;;21.60;99.90;;;;;;4997188;28;20499;-66
2021/08/20 09:04:54;;;;;;;6.00;4.63;;;21.60;99.90;;;;;;4996847;28;20193;-64
2021/08/20 09:07:21;;;;;;;5.00;4.50;;;21.60;99.90;;;;;;4978696;28;20448;-64
2021/08/20 09:09:50;;;;;;;4.60;4.20;;;21.70;99.90;;;;;;4978824;28;20455;-65
2021/08/20 09:12:28;;;;;;;5.20;4.70;;;21.80;99.90;;;;;;5000723;28;20455;-64
2021/08/20 09:14:58;;;;;;;4.93;3.93;;;21.90;99.90;;;;;;4984417;28;21086;-64
2021/08/20 09:17:36;;;;;;;7.13;4.30;;;21.90;99.90;;;;;;4993144;28;20452;-65
2021/08/20 09:20:14;;;;;;;6.73;4.80;;;21.90;99.90;;;;;;4978165;28;20498;-65
2021/08/20 09:22:40;;;;;;;5.20;4.40;;;22.00;99.90;;;;;;4980887;28;20519;-63
2021/08/20 09:25:06;;;;;;;5.20;4.40;;;22.00;99.90;;;;;;4993758;28;20559;-63
2021/08/20 09:27:36;;;;;;;5.63;5.03;;;22.00;99.90;;;;;;4994991;28;20261;-63
2021/08/20 09:30:11;;;;;;;5.00;4.50;;;22.00;99.90;;;;;;4999662;28;20462;-63
2021/08/20 09:32:43;;;;;;;4.60;4.20;;;22.10;99.90;;;;;;4999868;28;20570;-65
2021/08/20 09:35:09;;;;;;;4.70;4.30;;;22.20;99.90;;;;;;4999721;28;20562;-65
2021/08/20 09:37:36;;;;;;;5.00;4.50;;;22.20;99.90;;;;;;4997261;28;20448;-66
2021/08/20 09:40:09;;;;;;;6.23;3.90;;;22.30;99.90;;;;;;4995030;28;20471;-66
2021/08/20 09:42:36;;;;;;;5.23;4.73;;;22.40;99.90;;;;;;4997068;28;20445;-65
2021/08/20 09:45:12;;;;;;;4.97;4.53;;;22.50;99.90;;;;;;4997762;28;20817;-65
2021/08/20 09:47:51;;;;;;;5.37;4.23;;;22.50;99.90;;;;;;5007670;28;20467;-65
2021/08/20 09:50:20;;;;;;;6.17;5.00;;;22.40;99.90;;;;;;4998273;28;20455;-64
2021/08/20 09:52:47;;;;;;;4.23;3.83;;;22.30;99.90;;;;;;4990374;28;20535;-65
2021/08/20 09:55:37;;;;;;;6.77;4.17;;;22.20;99.90;;;;;;5010452;28;20523;-64
2021/08/20 09:58:07;;;;;;;6.77;4.70;;;22.20;99.90;;;;;;5002374;28;20448;-63
2021/08/20 10:00:34;;;;;;;4.03;3.73;;;22.30;99.90;;;;;;4999574;28;20439;-63
2021/08/20 10:03:06;;;;;;;4.20;3.80;;;22.40;99.90;;;;;;5002856;28;20562;-65
2021/08/20 10:05:34;;;;;;;4.20;3.80;;;22.50;99.90;;;;;;4999807;28;20444;-62
2021/08/20 10:08:01;;;;;;;5.90;4.70;;;22.50;99.90;;;;;;5002820;28;20824;-64
2021/08/20 10:10:30;;;;;;;4.70;4.20;;;22.60;99.90;;;;;;5001308;28;20479;-65
2021/08/20 10:12:56;;;;;;;6.40;4.60;;;22.70;99.90;;;;;;4983481;28;20733;-63
2021/08/20 10:15:24;;;;;;;4.40;4.00;;;22.70;99.90;;;;;;4986839;28;20442;-63
2021/08/20 10:17:52;;;;;;;4.10;3.80;;;22.90;99.90;;;;;;5003680;28;20442;-64
2021/08/20 10:20:19;;;;;;;5.23;4.60;;;22.90;99.90;;;;;;5004650;28;21013;-62
2021/08/20 10:22:44;;;;;;;4.50;4.10;;;22.90;99.90;;;;;;5000799;28;20448;-62
2021/08/20 10:25:10;;;;;;;8.20;4.70;;;22.90;99.90;;;;;;5005184;28;20455;-62
2021/08/20 10:27:39;;;;;;;5.50;4.20;;;22.90;99.90;;;;;;4981210;28;20205;-63
2021/08/20 10:30:09;;;;;;;19.23;5.00;;;23.10;99.90;;;;;;4998040;28;20239;-65
2021/08/20 10:32:35;;;;;;;4.80;3.70;;;23.10;99.90;;;;;;4998202;28;20531;-65
2021/08/20 10:35:00;;;;;;;5.00;4.13;;;23.10;99.90;;;;;;5002436;28;20436;-65
2021/08/20 10:37:31;;;;;;;3.90;3.50;;;23.10;99.90;;;;;;4985991;28;20510;-66
2021/08/20 10:40:01;;;;;;;3.73;3.43;;;23.10;99.90;;;;;;5000361;28;20220;-64
2021/08/20 10:42:43;;;;;;;4.10;3.70;;;23.20;99.90;;;;;;5000551;28;20907;-64
2021/08/20 10:45:13;;;;;;;7.30;3.80;;;23.30;99.90;;;;;;5001982;28;20435;-66
2021/08/20 10:47:42;;;;;;;4.93;4.10;;;23.30;99.90;;;;;;4998379;28;20464;-66
2021/08/20 10:50:16;;;;;;;4.20;3.90;;;23.30;99.90;;;;;;4999204;28;20783;-64
2021/08/20 10:52:50;;;;;;;5.27;3.97;;;23.30;99.90;;;;;;5003473;28;20939;-63
2021/08/20 10:55:24;;;;;;;4.17;3.77;;;23.40;99.90;;;;;;5000923;28;20452;-66
2021/08/20 10:57:49;;;;;;;3.77;3.47;;;23.40;99.90;;;;;;4998644;28;20451;-64
2021/08/20 11:00:18;;;;;;;4.57;4.00;;;23.50;99.90;;;;;;4994148;28;20460;-66
2021/08/20 11:02:53;;;;;;;4.37;3.93;;;23.60;99.90;;;;;;4999626;28;20193;-63
2021/08/20 11:05:37;;;;;;;3.97;3.67;;;23.60;99.90;;;;;;4998787;28;21984;-63
2021/08/20 11:08:03;;;;;;;5.03;4.53;;;23.60;99.90;;;;;;4977213;28;20468;-63
2021/08/20 11:10:29;;;;;;;5.77;3.90;;;23.70;99.90;;;;;;4986586;28;21006;-65
2021/08/20 11:12:54;;;;;;;5.43;3.63;;;23.70;99.90;;;;;;4995879;28;20440;-63
2021/08/20 11:15:23;;;;;;;4.30;3.80;;;23.60;99.90;;;;;;4994392;28;20192;-63
2021/08/20 11:17:59;;;;;;;4.93;4.10;;;23.70;99.90;;;;;;5000787;28;20197;-63
2021/08/20 11:20:37;;;;;;;5.93;4.27;;;23.70;99.90;;;;;;4986347;28;20455;-63
2021/08/20 11:25:37;;;;;;;4.07;3.60;;;23.90;99.90;;;;;;5007459;28;20452;-63
2021/08/20 11:28:17;;;;;;;4.00;3.70;;;24.00;99.90;;;;;;4988292;28;20504;-63
2021/08/20 11:30:52;;;;;;;4.57;4.10;;;24.10;99.90;;;;;;4994985;28;20459;-62
2021/08/20 11:33:23;;;;;;;3.93;3.60;;;24.20;99.90;;;;;;4986919;28;20435;-66
2021/08/20 11:35:52;;;;;;;5.27;3.30;;;24.20;99.90;;;;;;4980658;28;20563;-65
2021/08/20 11:38:53;;;;;;;4.60;3.87;;;24.20;99.90;;;;;;4985362;28;20856;-65
2021/08/20 11:41:37;;;;;;;3.93;3.50;;;24.40;99.90;;;;;;4982289;28;20986;-66
2021/08/20 11:44:08;;;;;;;5.67;3.20;;;24.50;99.90;;;;;;4983173;28;21530;-66
2021/08/20 11:46:44;;;;;;;4.10;3.70;;;24.60;99.90;;;;;;4983058;28;20513;-67
2021/08/20 11:49:24;;;;;;;4.83;4.20;;;24.80;99.90;;;;;;5000166;28;20545;-64
2021/08/20 11:51:50;;;;;;;4.40;4.00;;;24.90;99.90;;;;;;5003882;28;20507;-66
2021/08/20 11:54:16;;;;;;;6.33;3.90;;;25.10;99.90;;;;;;5005227;28;20826;-64
2021/08/20 11:56:52;;;;;;;3.83;3.50;;;25.40;99.90;;;;;;5001830;28;20444;-65
2021/08/20 11:59:18;;;;;;;3.80;3.50;;;25.30;99.90;;;;;;5001317;28;20463;-64
2021/08/20 12:01:44;;;;;;;3.93;3.53;;;25.40;99.90;;;;;;4999205;28;20809;-64
2021/08/20 12:04:09;;;;;;;3.80;3.47;;;25.70;99.90;;;;;;5000386;28;20467;-65
2021/08/20 12:06:37;;;;;;;4.30;3.80;;;25.90;99.90;;;;;;5000649;28;20192;-64
2021/08/20 12:09:12;;;;;;;3.70;3.07;;;26.40;99.90;;;;;;4982554;28;20295;-65
2021/08/20 12:11:42;;;;;;;3.63;3.33;;;27.60;99.90;;;;;;4982748;28;20899;-67
2021/08/20 12:14:20;;;;;;;4.33;3.60;;;28.00;99.90;;;;;;4982893;28;20448;-64
2021/08/20 12:16:48;;;;;;;4.30;3.37;;;28.40;99.90;;;;;;4996281;28;20452;-65
2021/08/20 12:19:44;;;;;;;4.23;3.83;;;28.60;99.90;;;;;;4996094;28;20623;-66
2021/08/20 12:22:12;;;;;;;5.47;3.60;;;29.20;99.90;;;;;;4972788;28;20444;-67
2021/08/20 12:24:48;;;;;;;7.43;3.83;;;29.70;99.90;;;;;;4981799;28;20970;-64
2021/08/20 12:27:25;;;;;;;4.13;3.70;;;29.60;98.50;;;;;;5002662;28;20439;-64
2021/08/20 12:30:00;;;;;;;4.20;3.83;;;30.40;97.20;;;;;;4995915;28;20609;-64
2021/08/20 12:32:31;;;;;;;3.50;3.20;;;30.30;95.50;;;;;;4997175;28;20450;-64
2021/08/20 12:35:20;;;;;;;6.03;4.07;;;30.50;94.40;;;;;;5007169;28;20567;-65
2021/08/20 12:38:00;;;;;;;3.77;3.47;;;29.50;93.40;;;;;;4988695;28;20444;-64
2021/08/20 12:40:43;;;;;;;3.97;3.50;;;30.10;94.20;;;;;;5000182;28;20844;-67
2021/08/20 12:43:40;;;;;;;4.10;3.70;;;30.20;93.20;;;;;;4998832;28;20459;-63
2021/08/20 12:46:19;;;;;;;4.00;3.60;;;31.00;92.20;;;;;;4999770;28;20452;-64
2021/08/20 12:49:06;;;;;;;3.70;3.40;;;30.50;92.40;;;;;;4998194;28;20902;-67
2021/08/20 12:51:34;;;;;;;3.90;3.60;;;31.60;91.10;;;;;;5002358;28;20428;-65
2021/08/20 12:54:00;;;;;;;3.67;3.37;;;31.60;87.20;;;;;;4985214;28;20432;-64
2021/08/20 12:56:39;;;;;;;3.60;3.30;;;31.50;85.60;;;;;;5003352;28;20446;-64
2021/08/20 12:59:11;;;;;;;4.30;3.90;;;31.60;85.20;;;;;;4978399;28;20257;-64
2021/08/20 13:01:39;;;;;;;4.00;3.60;;;32.30;84.10;;;;;;4968999;28;21001;-64
2021/08/20 13:04:06;;;;;;;4.73;3.57;;;32.40;80.70;;;;;;4997933;28;20904;-64